| time (UTC) | temp C | wind direction | speed KPH | gust KPH | rain 1hr cm | rain 24hr cm | rain mn cm | humidity % | barometer mb |
| 20260508144503 | 12 | 236 | 17.7 | 22.5 | 0.00 | 0.00 | 0.00 | 68 | 924.5 |
| 20260508143045 | 11 | 237 | 14.5 | 19.3 | 0.00 | 0.00 | 0.00 | 69 | 924.6 |
| 20260508141640 | 10 | 240 | 17.7 | 22.5 | 0.00 | 0.00 | 0.00 | 72 | 924.7 |
| 20260508140019 | 9 | 240 | 17.7 | 22.5 | 0.00 | 0.00 | 0.00 | 74 | 924.8 |
| 20260508134521 | 8 | 244 | 17.7 | 20.9 | 0.00 | 0.00 | 0.00 | 74 | 924.8 |
| 20260508133115 | 7 | 231 | 9.7 | 16.1 | 0.00 | 0.00 | 0.00 | 75 | 924.8 |
| 20260508131549 | 6 | 234 | 11.3 | 14.5 | 0.00 | 0.00 | 0.00 | 74 | 924.8 |
| 20260508130030 | 6 | 228 | 3.2 | 9.7 | 0.00 | 0.00 | 0.00 | 76 | 924.7 |
| 20260508124530 | 5 | 230 | 11.3 | 14.5 | 0.00 | 0.00 | 0.00 | 78 | 924.9 |
| 20260508123009 | 4 | 229 | 3.2 | 6.4 | 0.00 | 0.00 | 0.00 | 73 | 924.8 |
| 20260508121508 | 4 | 210 | 4.8 | 14.5 | 0.00 | 0.00 | 0.00 | 73 | 924.8 |
| 20260508120052 | 4 | 316 | 14.5 | 19.3 | 0.00 | 0.00 | 0.00 | 71 | 924.6 |
| 20260508114548 | 4 | 327 | 8.0 | 14.5 | 0.00 | 0.00 | 0.00 | 69 | 924.5 |
| 20260508113031 | 5 | 322 | 12.9 | 20.9 | 0.00 | 0.00 | 0.00 | 68 | 924.5 |
| 20260508111530 | 5 | 317 | 14.5 | 20.9 | 0.00 | 0.00 | 0.00 | 69 | 924.5 |
| 20260508110025 | 4 | 303 | 12.9 | 16.1 | 0.00 | 0.00 | 0.00 | 69 | 924.6 |
| 20260508104509 | 4 | 308 | 12.9 | 17.7 | 0.00 | 0.00 | 0.00 | 66 | 924.6 |
| 20260508103057 | 5 | 296 | 11.3 | 16.1 | 0.00 | 0.00 | 0.00 | 65 | 924.5 |
| 20260508101548 | 6 | 286 | 9.7 | 14.5 | 0.00 | 0.00 | 0.00 | 62 | 924.5 |
| 20260508100029 | 6 | 323 | 8.0 | 14.5 | 0.00 | 0.00 | 0.00 | 63 | 924.7 |
| 20260508094524 | 5 | 215 | 8.0 | 19.3 | 0.00 | 0.00 | 0.00 | 70 | 924.7 |
| 20260508093003 | 6 | 308 | 12.9 | 16.1 | 0.00 | 0.00 | 0.00 | 66 | 924.6 |
| 20260508091501 | 6 | 290 | 11.3 | 17.7 | 0.00 | 0.00 | 0.00 | 67 | 924.6 |
| 20260508090059 | 7 | 308 | 8.0 | 12.9 | 0.00 | 0.00 | 0.00 | 64 | 924.5 |
| 20260508084542 | 8 | 313 | 11.3 | 16.1 | 0.00 | 0.00 | 0.00 | 63 | 924.6 |
| 20260508083027 | 9 | 290 | 9.7 | 16.1 | 0.00 | 0.00 | 0.00 | 60 | 924.6 |
| 20260508081527 | 10 | 297 | 16.1 | 27.4 | 0.00 | 0.00 | 0.00 | 58 | 924.7 |
| 20260508080011 | 9 | 301 | 16.1 | 25.7 | 0.00 | 0.00 | 0.00 | 64 | 924.7 |
| 20260508074515 | 10 | 283 | 8.0 | 14.5 | 0.00 | 0.00 | 0.00 | 63 | 924.6 |
| 20260508073101 | 10 | 232 | 16.1 | 22.5 | 0.00 | 0.00 | 0.00 | 65 | 924.7 |
| 20260508071555 | 9 | 283 | 9.7 | 14.5 | 0.00 | 0.00 | 0.00 | 67 | 924.6 |
| 20260508070030 | 8 | 244 | 9.7 | 11.3 | 0.00 | 0.00 | 0.00 | 66 | 924.5 |
| 20260508064532 | 9 | 273 | 11.3 | 16.1 | 0.00 | 0.00 | 0.00 | 66 | 924.5 |
| 20260508063011 | 9 | 274 | 8.0 | 12.9 | 0.00 | 0.00 | 0.00 | 66 | 924.5 |
| 20260508061513 | 9 | 251 | 8.0 | 11.3 | 0.00 | 0.00 | 0.00 | 65 | 924.4 |
| 20260508060109 | 10 | 265 | 9.7 | 12.9 | 0.00 | 0.00 | 0.00 | 64 | 924.4 |
| 20260508054552 | 10 | 260 | 11.3 | 16.1 | 0.00 | 0.00 | 0.00 | 62 | 924.3 |
| 20260508053114 | 10 | 265 | 11.3 | 14.5 | 0.00 | 0.00 | 0.00 | 62 | 924.5 |
| 20260508051531 | 10 | 261 | 11.3 | 16.1 | 0.00 | 0.00 | 0.00 | 61 | 924.3 |
| 20260508050031 | 11 | 260 | 12.9 | 14.5 | 0.00 | 0.00 | 0.00 | 60 | 924.3 |
| 20260508044512 | 12 | 275 | 11.3 | 12.9 | 0.00 | 0.00 | 0.00 | 56 | 924.5 |
| 20260508043012 | 13 | 272 | 11.3 | 16.1 | 0.00 | 0.00 | 0.00 | 53 | 924.5 |
| 20260508041614 | 14 | 270 | 12.9 | 19.3 | 0.00 | 0.00 | 0.00 | 50 | 924.5 |
| 20260508040109 | 15 | 286 | 19.3 | 25.7 | 0.00 | 0.00 | 0.00 | 49 | 924.5 |
| 20260508034535 | 14 | 282 | 20.9 | 29.0 | 0.00 | 0.00 | 0.00 | 50 | 924.4 |
| 20260508033033 | 13 | 282 | 20.9 | 25.7 | 0.00 | 0.00 | 0.00 | 52 | 924.3 |
| 20260508031515 | 11 | 295 | 9.7 | 12.9 | 0.00 | 0.00 | 0.00 | 54 | 924.1 |
| 20260508030023 | 12 | 291 | 9.7 | 12.9 | 0.00 | 0.00 | 0.00 | 52 | 923.9 |
| 20260508024606 | 13 | 276 | 9.7 | 12.9 | 0.00 | 0.00 | 0.00 | 52 | 923.8 |
| 20260508023057 | 14 | 269 | 9.7 | 12.9 | 0.00 | 0.00 | 0.00 | 50 | 923.5 |
| 20260508021541 | 16 | 265 | 9.7 | 12.9 | 0.00 | 0.00 | 0.00 | 47 | 923.5 |
| 20260508020045 | 17 | 258 | 11.3 | 16.1 | 0.00 | 0.00 | 0.00 | 44 | 923.4 |
| 20260508014521 | 17 | 245 | 12.9 | 24.1 | 0.00 | 0.00 | 0.00 | 43 | 923.3 |
| 20260508013020 | 18 | 261 | 20.9 | 29.0 | 0.00 | 0.00 | 0.00 | 42 | 923.1 |
| 20260508011508 | 18 | 211 | 14.5 | 24.1 | 0.00 | 0.00 | 0.00 | 41 | 923.0 |
| 20260508010001 | 18 | 246 | 14.5 | 20.9 | 0.00 | 0.00 | 0.00 | 36 | 923.1 |
| 20260508004544 | 18 | 273 | 24.1 | 51.5 | 0.00 | 0.00 | 0.00 | 36 | 923.2 |
| 20260508003042 | 19 | 319 | 24.1 | 33.8 | 0.00 | 0.00 | 0.00 | 30 | 923.1 |
| 20260508001524 | 20 | 312 | 14.5 | 20.9 | 0.00 | 0.00 | 0.00 | 31 | 922.8 |
| 20260508000025 | 20 | 305 | 12.9 | 22.5 | 0.00 | 0.00 | 0.00 | 31 | 922.7 |
| 20260507234505 | 20 | 283 | 16.1 | 25.7 | 0.00 | 0.00 | 0.00 | 31 | 922.7 |
| 20260507233018 | 20 | 280 | 20.9 | 43.5 | 0.00 | 0.00 | 0.00 | 30 | 922.6 |
| 20260507231547 | 20 | 288 | 19.3 | 30.6 | 0.00 | 0.00 | 0.00 | 31 | 922.6 |
| 20260507230046 | 20 | 340 | 20.9 | 29.0 | 0.00 | 0.00 | 0.00 | 30 | 922.7 |
| 20260507224531 | 20 | 349 | 22.5 | 33.8 | 0.00 | 0.00 | 0.00 | 30 | 922.7 |
| 20260507223029 | 20 | 319 | 16.1 | 24.1 | 0.00 | 0.00 | 0.00 | 31 | 922.7 |
| 20260507221509 | 19 | 321 | 17.7 | 43.5 | 0.00 | 0.00 | 0.00 | 32 | 922.9 |
| 20260507220009 | 20 | 333 | 17.7 | 35.4 | 0.00 | 0.00 | 0.00 | 30 | 922.9 |
| 20260507214558 | 20 | 324 | 27.4 | 37.0 | 0.00 | 0.00 | 0.00 | 29 | 922.9 |
| 20260507213100 | 20 | 303 | 12.9 | 24.1 | 0.00 | 0.00 | 0.00 | 31 | 923.1 |
| 20260507211529 | 19 | 331 | 19.3 | 29.0 | 0.00 | 0.00 | 0.00 | 37 | 923.2 |
| 20260507210028 | 18 | 263 | 20.9 | 29.0 | 0.00 | 0.00 | 0.00 | 44 | 923.5 |
| 20260507204515 | 16 | 298 | 9.7 | 19.3 | 0.00 | 0.00 | 0.00 | 51 | 923.5 |
| 20260507203009 | 16 | 338 | 29.0 | 95.0 | 0.00 | 0.00 | 0.00 | 47 | 923.8 |
| 20260507201551 | 18 | 344 | 11.3 | 17.7 | 0.00 | 0.00 | 0.00 | 35 | 923.2 |
| 20260507200051 | 18 | 325 | 9.7 | 16.1 | 0.00 | 0.00 | 0.00 | 36 | 923.2 |
| 20260507194559 | 18 | 316 | 16.1 | 32.2 | 0.00 | 0.00 | 0.00 | 32 | 923.2 |
| 20260507193037 | 20 | 355 | 19.3 | 29.0 | 0.00 | 0.00 | 0.00 | 32 | 923.1 |
| 20260507191522 | 18 | 315 | 16.1 | 24.1 | 0.00 | 0.00 | 0.00 | 33 | 923.2 |
| 20260507190014 | 18 | 320 | 14.5 | 29.0 | 0.00 | 0.00 | 0.00 | 32 | 923.2 |
| 20260507184556 | 19 | 304 | 12.9 | 30.6 | 0.00 | 0.00 | 0.00 | 31 | 923.2 |
| 20260507183055 | 20 | 338 | 24.1 | 37.0 | 0.00 | 0.00 | 0.00 | 32 | 923.3 |
| 20260507181534 | 19 | 323 | 24.1 | 35.4 | 0.00 | 0.00 | 0.00 | 35 | 923.5 |
| 20260507180036 | 18 | 330 | 24.1 | 35.4 | 0.00 | 0.00 | 0.00 | 37 | 923.7 |
| 20260507174517 | 19 | 340 | 22.5 | 33.8 | 0.00 | 0.00 | 0.00 | 37 | 923.6 |
| 20260507173025 | 18 | 325 | 22.5 | 40.2 | 0.00 | 0.00 | 0.00 | 39 | 923.8 |
| 20260507171608 | 19 | 336 | 20.9 | 32.2 | 0.00 | 0.00 | 0.00 | 37 | 923.9 |
| 20260507171502 | 19 | 344 | 24.1 | 35.4 | 0.00 | 0.00 | 0.00 | 37 | 923.9 |
| 20260507170110 | 18 | 331 | 25.7 | 43.5 | 0.00 | 0.00 | 0.00 | 38 | 923.8 |
| 20260507164541 | 17 | 336 | 12.9 | 20.9 | 0.00 | 0.00 | 0.00 | 41 | 924.0 |
| 20260507163031 | 16 | 200 | 9.7 | 17.7 | 0.00 | 0.00 | 0.00 | 42 | 924.0 |
| 20260507161510 | 15 | 248 | 6.4 | 12.9 | 0.00 | 0.00 | 0.00 | 45 | 924.2 |
| 20260507160006 | 13 | 231 | 9.7 | 14.5 | 0.00 | 0.00 | 0.00 | 47 | 924.3 |
| 20260507154551 | 12 | 221 | 8.0 | 16.1 | 0.00 | 0.00 | 0.00 | 50 | 924.3 |
| 20260507153042 | 11 | 198 | 9.7 | 12.9 | 0.00 | 0.00 | 0.00 | 51 | 924.4 |
| 20260507151520 | 11 | 183 | 11.3 | 16.1 | 0.00 | 0.00 | 0.00 | 48 | 924.6 |
| 20260507150018 | 10 | 180 | 9.7 | 14.5 | 0.00 | 0.00 | 0.00 | 49 | 924.6 |